sensor_id;sensor_type;location;lat;lon;timestamp;pressure;altitude;pressure_sealevel;temperature;humidity
56038;BME280;41907;47.848;9.000;2023-05-10T00:01:10;95254.81;;;13.24;100.00
56038;BME280;41907;47.848;9.000;2023-05-10T00:03:35;95261.53;;;13.18;100.00
56038;BME280;41907;47.848;9.000;2023-05-10T00:06:00;95265.16;;;13.13;100.00
56038;BME280;41907;47.848;9.000;2023-05-10T00:08:25;95267.66;;;13.18;100.00
56038;BME280;41907;47.848;9.000;2023-05-10T00:10:51;95258.59;;;13.11;100.00
56038;BME280;41907;47.848;9.000;2023-05-10T00:13:16;95256.81;;;13.15;100.00
56038;BME280;41907;47.848;9.000;2023-05-10T00:15:42;95261.69;;;13.13;100.00
56038;BME280;41907;47.848;9.000;2023-05-10T00:18:07;95257.44;;;13.12;100.00
56038;BME280;41907;47.848;9.000;2023-05-10T00:20:32;95262.38;;;13.10;100.00
56038;BME280;41907;47.848;9.000;2023-05-10T00:22:57;95266.75;;;13.14;100.00
56038;BME280;41907;47.848;9.000;2023-05-10T00:25:22;95269.56;;;13.18;100.00
56038;BME280;41907;47.848;9.000;2023-05-10T00:27:48;95269.50;;;13.05;100.00
56038;BME280;41907;47.848;9.000;2023-05-10T00:30:13;95274.22;;;13.09;100.00
56038;BME280;41907;47.848;9.000;2023-05-10T00:32:38;95267.53;;;13.15;100.00
56038;BME280;41907;47.848;9.000;2023-05-10T00:35:04;95266.63;;;13.11;100.00
56038;BME280;41907;47.848;9.000;2023-05-10T00:37:29;95269.97;;;13.08;100.00
56038;BME280;41907;47.848;9.000;2023-05-10T00:39:54;95273.75;;;13.07;100.00
56038;BME280;41907;47.848;9.000;2023-05-10T00:42:20;95269.41;;;13.02;100.00
56038;BME280;41907;47.848;9.000;2023-05-10T00:44:45;95269.06;;;13.03;100.00
56038;BME280;41907;47.848;9.000;2023-05-10T00:47:11;95276.53;;;12.98;100.00
56038;BME280;41907;47.848;9.000;2023-05-10T00:49:37;95277.78;;;13.00;100.00
56038;BME280;41907;47.848;9.000;2023-05-10T00:52:02;95273.19;;;13.01;100.00
56038;BME280;41907;47.848;9.000;2023-05-10T00:54:28;95283.47;;;12.99;100.00
56038;BME280;41907;47.848;9.000;2023-05-10T00:56:53;95279.09;;;12.94;100.00
56038;BME280;41907;47.848;9.000;2023-05-10T00:59:18;95279.97;;;12.86;100.00
56038;BME280;41907;47.848;9.000;2023-05-10T01:01:45;95275.97;;;12.92;100.00
56038;BME280;41907;47.848;9.000;2023-05-10T01:04:11;95285.56;;;12.93;100.00
56038;BME280;41907;47.848;9.000;2023-05-10T01:06:37;95289.09;;;12.85;100.00
56038;BME280;41907;47.848;9.000;2023-05-10T01:09:02;95291.13;;;12.88;100.00
56038;BME280;41907;47.848;9.000;2023-05-10T01:11:28;95292.56;;;12.86;100.00
56038;BME280;41907;47.848;9.000;2023-05-10T01:13:55;95299.81;;;12.85;100.00
56038;BME280;41907;47.848;9.000;2023-05-10T01:16:21;95295.81;;;12.79;100.00
56038;BME280;41907;47.848;9.000;2023-05-10T01:18:47;95300.03;;;12.80;100.00
56038;BME280;41907;47.848;9.000;2023-05-10T01:23:46;95297.19;;;12.64;100.00
56038;BME280;41907;47.848;9.000;2023-05-10T01:27:09;95295.53;;;12.60;100.00
56038;BME280;41907;47.848;9.000;2023-05-10T01:29:13;95305.69;;;12.66;100.00
56038;BME280;41907;47.848;9.000;2023-05-10T01:34:29;95300.88;;;12.60;100.00
56038;BME280;41907;47.848;9.000;2023-05-10T01:37:16;95299.44;;;12.62;100.00
56038;BME280;41907;47.848;9.000;2023-05-10T01:39:46;95303.56;;;12.60;100.00
56038;BME280;41907;47.848;9.000;2023-05-10T01:42:19;95307.56;;;12.54;100.00
56038;BME280;41907;47.848;9.000;2023-05-10T01:44:53;95308.84;;;12.48;100.00
56038;BME280;41907;47.848;9.000;2023-05-10T01:47:22;95312.22;;;12.45;100.00
56038;BME280;41907;47.848;9.000;2023-05-10T01:49:52;95312.63;;;12.47;100.00
56038;BME280;41907;47.848;9.000;2023-05-10T01:52:18;95316.56;;;12.49;100.00
56038;BME280;41907;47.848;9.000;2023-05-10T01:54:47;95316.09;;;12.47;100.00
56038;BME280;41907;47.848;9.000;2023-05-10T01:57:14;95315.13;;;12.52;100.00
56038;BME280;41907;47.848;9.000;2023-05-10T01:59:42;95317.34;;;12.50;100.00
56038;BME280;41907;47.848;9.000;2023-05-10T02:02:08;95327.41;;;12.53;100.00
56038;BME280;41907;47.848;9.000;2023-05-10T02:04:37;95325.81;;;12.52;100.00
56038;BME280;41907;47.848;9.000;2023-05-10T02:07:03;95333.19;;;12.55;100.00
56038;BME280;41907;47.848;9.000;2023-05-10T02:09:29;95325.50;;;12.53;100.00
56038;BME280;41907;47.848;9.000;2023-05-10T02:11:57;95328.81;;;12.50;100.00
56038;BME280;41907;47.848;9.000;2023-05-10T02:14:23;95328.66;;;12.35;100.00
56038;BME280;41907;47.848;9.000;2023-05-10T02:16:49;95331.34;;;12.35;100.00
56038;BME280;41907;47.848;9.000;2023-05-10T02:19:15;95334.91;;;12.39;100.00
56038;BME280;41907;47.848;9.000;2023-05-10T02:21:42;95338.16;;;12.44;100.00
56038;BME280;41907;47.848;9.000;2023-05-10T02:24:08;95343.94;;;12.46;100.00
56038;BME280;41907;47.848;9.000;2023-05-10T02:26:33;95340.50;;;12.46;100.00
56038;BME280;41907;47.848;9.000;2023-05-10T02:29:00;95340.31;;;12.51;100.00
56038;BME280;41907;47.848;9.000;2023-05-10T02:31:28;95345.78;;;12.54;100.00
56038;BME280;41907;47.848;9.000;2023-05-10T02:33:53;95343.91;;;12.55;100.00
56038;BME280;41907;47.848;9.000;2023-05-10T02:36:19;95333.53;;;12.53;100.00
56038;BME280;41907;47.848;9.000;2023-05-10T02:38:46;95341.66;;;12.57;100.00
56038;BME280;41907;47.848;9.000;2023-05-10T02:41:12;95344.63;;;12.43;100.00
56038;BME280;41907;47.848;9.000;2023-05-10T02:43:38;95353.63;;;12.39;100.00
56038;BME280;41907;47.848;9.000;2023-05-10T02:46:04;95353.31;;;12.40;100.00
56038;BME280;41907;47.848;9.000;2023-05-10T02:48:30;95344.09;;;12.50;100.00
56038;BME280;41907;47.848;9.000;2023-05-10T02:50:55;95342.34;;;12.54;100.00
56038;BME280;41907;47.848;9.000;2023-05-10T02:53:30;95344.22;;;12.53;100.00
56038;BME280;41907;47.848;9.000;2023-05-10T02:55:57;95346.31;;;12.48;100.00
56038;BME280;41907;47.848;9.000;2023-05-10T02:58:23;95351.34;;;12.49;100.00
56038;BME280;41907;47.848;9.000;2023-05-10T03:00:48;95349.56;;;12.53;100.00
56038;BME280;41907;47.848;9.000;2023-05-10T03:03:14;95346.63;;;12.46;100.00
56038;BME280;41907;47.848;9.000;2023-05-10T03:05:39;95348.66;;;12.49;100.00
56038;BME280;41907;47.848;9.000;2023-05-10T03:08:04;95354.31;;;12.48;100.00
56038;BME280;41907;47.848;9.000;2023-05-10T03:10:31;95347.88;;;12.49;100.00
56038;BME280;41907;47.848;9.000;2023-05-10T03:13:16;95349.19;;;12.43;100.00
56038;BME280;41907;47.848;9.000;2023-05-10T03:16:04;95344.63;;;12.43;100.00
56038;BME280;41907;47.848;9.000;2023-05-10T03:18:42;95343.06;;;12.42;100.00
56038;BME280;41907;47.848;9.000;2023-05-10T03:21:10;95348.59;;;12.37;100.00
56038;BME280;41907;47.848;9.000;2023-05-10T03:26:05;95352.66;;;12.43;100.00
56038;BME280;41907;47.848;9.000;2023-05-10T03:28:31;95362.44;;;12.39;100.00
56038;BME280;41907;47.848;9.000;2023-05-10T03:30:57;95352.50;;;12.40;100.00
56038;BME280;41907;47.848;9.000;2023-05-10T03:33:22;95358.50;;;12.37;100.00
56038;BME280;41907;47.848;9.000;2023-05-10T03:35:48;95354.00;;;12.28;100.00
56038;BME280;41907;47.848;9.000;2023-05-10T03:38:13;95351.03;;;12.30;100.00
56038;BME280;41907;47.848;9.000;2023-05-10T03:40:38;95352.25;;;12.33;100.00
56038;BME280;41907;47.848;9.000;2023-05-10T03:43:04;95355.06;;;12.36;100.00
56038;BME280;41907;47.848;9.000;2023-05-10T03:45:29;95355.41;;;12.35;100.00
56038;BME280;41907;47.848;9.000;2023-05-10T03:47:55;95355.59;;;12.29;100.00
56038;BME280;41907;47.848;9.000;2023-05-10T03:50:21;95360.03;;;12.25;100.00
56038;BME280;41907;47.848;9.000;2023-05-10T03:52:47;95357.00;;;12.27;100.00
56038;BME280;41907;47.848;9.000;2023-05-10T03:55:12;95348.66;;;12.28;100.00
56038;BME280;41907;47.848;9.000;2023-05-10T03:57:37;95359.19;;;12.34;100.00
56038;BME280;41907;47.848;9.000;2023-05-10T04:00:03;95358.06;;;12.35;100.00
56038;BME280;41907;47.848;9.000;2023-05-10T04:02:28;95358.50;;;12.37;100.00
56038;BME280;41907;47.848;9.000;2023-05-10T04:04:54;95358.84;;;12.35;100.00
56038;BME280;41907;47.848;9.000;2023-05-10T04:07:20;95362.75;;;12.38;100.00
56038;BME280;41907;47.848;9.000;2023-05-10T04:09:45;95369.66;;;12.39;100.00
56038;BME280;41907;47.848;9.000;2023-05-10T04:12:10;95372.16;;;12.44;100.00
56038;BME280;41907;47.848;9.000;2023-05-10T04:14:35;95363.81;;;12.45;100.00
56038;BME280;41907;47.848;9.000;2023-05-10T04:17:00;95373.72;;;12.45;100.00
56038;BME280;41907;47.848;9.000;2023-05-10T04:19:29;95376.84;;;12.47;100.00
56038;BME280;41907;47.848;9.000;2023-05-10T04:21:55;95374.50;;;12.45;100.00
56038;BME280;41907;47.848;9.000;2023-05-10T04:24:20;95373.72;;;12.45;100.00
56038;BME280;41907;47.848;9.000;2023-05-10T04:26:46;95369.28;;;12.49;100.00
56038;BME280;41907;47.848;9.000;2023-05-10T04:29:11;95383.88;;;12.51;100.00
56038;BME280;41907;47.848;9.000;2023-05-10T04:31:37;95370.84;;;12.50;100.00
56038;BME280;41907;47.848;9.000;2023-05-10T04:34:02;95379.19;;;12.48;100.00
56038;BME280;41907;47.848;9.000;2023-05-10T04:36:27;95374.75;;;12.52;100.00
56038;BME280;41907;47.848;9.000;2023-05-10T04:38:53;95376.00;;;12.55;100.00
56038;BME280;41907;47.848;9.000;2023-05-10T04:41:19;95382.56;;;12.57;100.00
56038;BME280;41907;47.848;9.000;2023-05-10T04:43:45;95389.03;;;12.56;100.00
56038;BME280;41907;47.848;9.000;2023-05-10T04:46:11;95388.22;;;12.44;100.00
56038;BME280;41907;47.848;9.000;2023-05-10T04:48:36;95388.00;;;12.49;100.00
56038;BME280;41907;47.848;9.000;2023-05-10T04:51:01;95382.00;;;12.52;100.00
56038;BME280;41907;47.848;9.000;2023-05-10T04:53:28;95390.28;;;12.59;100.00
56038;BME280;41907;47.848;9.000;2023-05-10T04:55:53;95386.94;;;12.62;100.00
56038;BME280;41907;47.848;9.000;2023-05-10T04:58:18;95380.69;;;12.58;100.00
56038;BME280;41907;47.848;9.000;2023-05-10T05:00:44;95383.16;;;12.63;100.00
56038;BME280;41907;47.848;9.000;2023-05-10T05:03:09;95389.56;;;12.50;100.00
56038;BME280;41907;47.848;9.000;2023-05-10T05:05:34;95390.28;;;12.59;100.00
56038;BME280;41907;47.848;9.000;2023-05-10T05:07:59;95396.09;;;12.61;100.00
56038;BME280;41907;47.848;9.000;2023-05-10T05:10:25;95390.84;;;12.64;100.00
56038;BME280;41907;47.848;9.000;2023-05-10T05:12:50;95401.44;;;12.61;100.00
56038;BME280;41907;47.848;9.000;2023-05-10T05:15:16;95397.41;;;12.55;100.00
56038;BME280;41907;47.848;9.000;2023-05-10T05:17:42;95395.75;;;12.62;100.00
56038;BME280;41907;47.848;9.000;2023-05-10T05:20:07;95390.50;;;12.66;100.00
56038;BME280;41907;47.848;9.000;2023-05-10T05:22:33;95400.25;;;12.71;100.00
56038;BME280;41907;47.848;9.000;2023-05-10T05:24:58;95398.88;;;12.64;100.00
56038;BME280;41907;47.848;9.000;2023-05-10T05:27:23;95392.88;;;12.67;100.00
56038;BME280;41907;47.848;9.000;2023-05-10T05:29:52;95397.91;;;12.69;100.00
56038;BME280;41907;47.848;9.000;2023-05-10T05:32:17;95399.59;;;12.74;100.00
56038;BME280;41907;47.848;9.000;2023-05-10T05:34:44;95411.72;;;12.71;100.00
56038;BME280;41907;47.848;9.000;2023-05-10T05:37:12;95404.59;;;12.75;100.00
56038;BME280;41907;47.848;9.000;2023-05-10T05:39:37;95417.41;;;12.70;100.00
56038;BME280;41907;47.848;9.000;2023-05-10T05:42:02;95413.16;;;12.68;100.00
56038;BME280;41907;47.848;9.000;2023-05-10T05:44:28;95411.41;;;12.73;100.00
56038;BME280;41907;47.848;9.000;2023-05-10T05:46:53;95416.09;;;12.76;100.00
56038;BME280;41907;47.848;9.000;2023-05-10T05:49:18;95420.00;;;12.78;100.00
56038;BME280;41907;47.848;9.000;2023-05-10T05:51:44;95429.78;;;12.74;100.00
56038;BME280;41907;47.848;9.000;2023-05-10T05:54:10;95427.38;;;12.81;100.00
56038;BME280;41907;47.848;9.000;2023-05-10T05:56:35;95434.31;;;12.82;100.00
56038;BME280;41907;47.848;9.000;2023-05-10T05:59:00;95431.28;;;12.84;100.00
56038;BME280;41907;47.848;9.000;2023-05-10T06:01:25;95426.53;;;12.89;100.00
56038;BME280;41907;47.848;9.000;2023-05-10T06:03:50;95434.22;;;12.91;100.00
56038;BME280;41907;47.848;9.000;2023-05-10T06:06:16;95425.41;;;12.90;100.00
56038;BME280;41907;47.848;9.000;2023-05-10T06:08:41;95416.94;;;12.88;100.00
56038;BME280;41907;47.848;9.000;2023-05-10T06:11:06;95427.72;;;12.80;100.00
56038;BME280;41907;47.848;9.000;2023-05-10T06:13:31;95435.00;;;12.91;100.00
56038;BME280;41907;47.848;9.000;2023-05-10T06:15:58;95437.22;;;12.89;100.00
56038;BME280;41907;47.848;9.000;2023-05-10T06:18:23;95430.78;;;12.90;100.00
56038;BME280;41907;47.848;9.000;2023-05-10T06:20:49;95437.94;;;12.98;100.00
56038;BME280;41907;47.848;9.000;2023-05-10T06:23:14;95448.97;;;12.97;100.00
56038;BME280;41907;47.848;9.000;2023-05-10T06:25:39;95442.19;;;12.99;100.00
56038;BME280;41907;47.848;9.000;2023-05-10T06:28:05;95445.31;;;13.01;100.00
56038;BME280;41907;47.848;9.000;2023-05-10T06:30:30;95449.22;;;13.04;100.00
56038;BME280;41907;47.848;9.000;2023-05-10T06:32:55;95451.69;;;13.09;100.00
56038;BME280;41907;47.848;9.000;2023-05-10T06:35:20;95443.94;;;13.16;100.00
56038;BME280;41907;47.848;9.000;2023-05-10T06:37:46;95445.81;;;13.16;100.00
56038;BME280;41907;47.848;9.000;2023-05-10T06:40:11;95441.03;;;13.21;100.00
56038;BME280;41907;47.848;9.000;2023-05-10T06:42:37;95444.28;;;13.27;100.00
56038;BME280;41907;47.848;9.000;2023-05-10T06:45:02;95442.63;;;13.34;100.00
56038;BME280;41907;47.848;9.000;2023-05-10T06:47:28;95442.38;;;13.15;100.00
56038;BME280;41907;47.848;9.000;2023-05-10T06:49:53;95445.38;;;13.14;100.00
56038;BME280;41907;47.848;9.000;2023-05-10T06:52:18;95451.19;;;13.16;100.00
56038;BME280;41907;47.848;9.000;2023-05-10T06:54:43;95450.31;;;13.24;100.00
56038;BME280;41907;47.848;9.000;2023-05-10T06:57:09;95453.00;;;13.24;100.00
56038;BME280;41907;47.848;9.000;2023-05-10T06:59:34;95456.03;;;13.34;100.00
56038;BME280;41907;47.848;9.000;2023-05-10T07:02:01;95459.63;;;13.51;100.00
56038;BME280;41907;47.848;9.000;2023-05-10T07:04:26;95463.56;;;13.53;100.00
56038;BME280;41907;47.848;9.000;2023-05-10T07:06:52;95473.38;;;13.61;100.00
56038;BME280;41907;47.848;9.000;2023-05-10T07:09:18;95469.41;;;13.67;100.00
56038;BME280;41907;47.848;9.000;2023-05-10T07:11:43;95473.75;;;13.72;100.00
56038;BME280;41907;47.848;9.000;2023-05-10T07:14:08;95469.19;;;13.85;100.00
56038;BME280;41907;47.848;9.000;2023-05-10T07:16:33;95472.63;;;13.97;100.00
56038;BME280;41907;47.848;9.000;2023-05-10T07:18:59;95463.94;;;14.12;100.00
56038;BME280;41907;47.848;9.000;2023-05-10T07:21:24;95463.25;;;14.15;100.00
56038;BME280;41907;47.848;9.000;2023-05-10T07:23:49;95459.69;;;14.24;100.00
56038;BME280;41907;47.848;9.000;2023-05-10T07:26:15;95466.03;;;14.31;100.00
56038;BME280;41907;47.848;9.000;2023-05-10T07:28:40;95465.59;;;14.29;100.00
56038;BME280;41907;47.848;9.000;2023-05-10T07:31:06;95464.69;;;14.37;100.00
56038;BME280;41907;47.848;9.000;2023-05-10T07:33:31;95467.13;;;14.55;100.00
56038;BME280;41907;47.848;9.000;2023-05-10T07:35:56;95470.28;;;14.57;100.00
56038;BME280;41907;47.848;9.000;2023-05-10T07:38:22;95470.13;;;14.65;100.00
56038;BME280;41907;47.848;9.000;2023-05-10T07:40:47;95472.47;;;14.79;100.00
56038;BME280;41907;47.848;9.000;2023-05-10T07:43:12;95474.59;;;14.73;100.00
56038;BME280;41907;47.848;9.000;2023-05-10T07:45:38;95474.16;;;14.71;100.00
56038;BME280;41907;47.848;9.000;2023-05-10T07:48:03;95477.09;;;14.94;100.00
56038;BME280;41907;47.848;9.000;2023-05-10T07:50:28;95478.72;;;15.11;100.00
56038;BME280;41907;47.848;9.000;2023-05-10T07:52:53;95473.13;;;15.16;100.00
56038;BME280;41907;47.848;9.000;2023-05-10T07:55:19;95484.78;;;15.36;100.00
56038;BME280;41907;47.848;9.000;2023-05-10T07:57:46;95475.50;;;15.61;100.00
56038;BME280;41907;47.848;9.000;2023-05-10T08:00:12;95476.00;;;15.39;100.00
56038;BME280;41907;47.848;9.000;2023-05-10T08:02:38;95477.16;;;15.38;100.00
56038;BME280;41907;47.848;9.000;2023-05-10T08:05:03;95484.78;;;15.36;100.00
56038;BME280;41907;47.848;9.000;2023-05-10T08:07:30;95485.22;;;15.38;100.00
56038;BME280;41907;47.848;9.000;2023-05-10T08:09:55;95484.19;;;14.86;100.00
56038;BME280;41907;47.848;9.000;2023-05-10T08:12:20;95486.75;;;14.83;100.00
56038;BME280;41907;47.848;9.000;2023-05-10T08:14:46;95488.94;;;14.65;100.00
56038;BME280;41907;47.848;9.000;2023-05-10T08:17:11;95476.03;;;14.83;100.00
56038;BME280;41907;47.848;9.000;2023-05-10T08:19:36;95479.97;;;14.73;100.00
56038;BME280;41907;47.848;9.000;2023-05-10T08:22:01;95482.28;;;14.87;100.00
56038;BME280;41907;47.848;9.000;2023-05-10T08:24:27;95495.28;;;15.13;100.00
56038;BME280;41907;47.848;9.000;2023-05-10T08:26:52;95487.28;;;15.29;100.00
56038;BME280;41907;47.848;9.000;2023-05-10T08:29:17;95487.28;;;15.56;99.66
56038;BME280;41907;47.848;9.000;2023-05-10T08:31:42;95493.63;;;15.64;99.71
56038;BME280;41907;47.848;9.000;2023-05-10T08:34:08;95492.13;;;15.67;96.02
56038;BME280;41907;47.848;9.000;2023-05-10T08:36:33;95493.13;;;15.74;97.82
56038;BME280;41907;47.848;9.000;2023-05-10T08:38:58;95490.31;;;15.55;97.13
56038;BME280;41907;47.848;9.000;2023-05-10T08:41:23;95505.50;;;15.35;98.75
56038;BME280;41907;47.848;9.000;2023-05-10T08:43:50;95492.94;;;15.11;100.00
56038;BME280;41907;47.848;9.000;2023-05-10T08:46:17;95501.09;;;14.87;100.00
56038;BME280;41907;47.848;9.000;2023-05-10T08:48:43;95497.56;;;14.46;100.00
56038;BME280;41907;47.848;9.000;2023-05-10T08:51:09;95499.38;;;14.06;100.00
56038;BME280;41907;47.848;9.000;2023-05-10T08:53:35;95494.22;;;14.13;100.00
56038;BME280;41907;47.848;9.000;2023-05-10T08:56:01;95495.75;;;14.26;100.00
56038;BME280;41907;47.848;9.000;2023-05-10T08:58:27;95498.75;;;14.73;100.00
56038;BME280;41907;47.848;9.000;2023-05-10T09:00:52;95499.34;;;14.55;100.00
56038;BME280;41907;47.848;9.000;2023-05-10T09:03:18;95499.59;;;14.49;100.00
56038;BME280;41907;47.848;9.000;2023-05-10T09:05:43;95491.41;;;14.70;100.00
56038;BME280;41907;47.848;9.000;2023-05-10T09:08:09;95497.00;;;15.33;100.00
56038;BME280;41907;47.848;9.000;2023-05-10T09:10:35;95484.25;;;15.30;100.00
56038;BME280;41907;47.848;9.000;2023-05-10T09:13:01;95487.38;;;15.60;97.50
56038;BME280;41907;47.848;9.000;2023-05-10T09:15:27;95490.84;;;16.23;95.87
56038;BME280;41907;47.848;9.000;2023-05-10T09:17:53;95497.25;;;16.85;92.82
56038;BME280;41907;47.848;9.000;2023-05-10T09:20:19;95492.25;;;17.22;86.83
56038;BME280;41907;47.848;9.000;2023-05-10T09:22:45;95488.63;;;17.76;85.62
56038;BME280;41907;47.848;9.000;2023-05-10T09:25:11;95496.13;;;17.63;80.64
56038;BME280;41907;47.848;9.000;2023-05-10T09:27:37;95488.41;;;17.84;81.73
56038;BME280;41907;47.848;9.000;2023-05-10T09:30:03;95493.19;;;18.17;82.06
56038;BME280;41907;47.848;9.000;2023-05-10T09:32:38;95482.94;;;18.53;80.99
56038;BME280;41907;47.848;9.000;2023-05-10T09:35:09;95494.66;;;18.61;79.11
56038;BME280;41907;47.848;9.000;2023-05-10T09:37:34;95495.56;;;18.45;77.57
56038;BME280;41907;47.848;9.000;2023-05-10T09:40:00;95493.50;;;18.62;76.84
56038;BME280;41907;47.848;9.000;2023-05-10T09:42:25;95490.44;;;18.14;75.76
56038;BME280;41907;47.848;9.000;2023-05-10T09:44:50;95495.00;;;17.87;80.14
56038;BME280;41907;47.848;9.000;2023-05-10T09:47:19;95494.63;;;17.66;79.13
56038;BME280;41907;47.848;9.000;2023-05-10T09:49:48;95490.56;;;17.56;77.40
56038;BME280;41907;47.848;9.000;2023-05-10T09:52:14;95495.16;;;17.14;78.66
56038;BME280;41907;47.848;9.000;2023-05-10T09:54:42;95498.63;;;17.33;78.61
56038;BME280;41907;47.848;9.000;2023-05-10T09:57:18;95501.31;;;17.53;79.93
56038;BME280;41907;47.848;9.000;2023-05-10T09:59:43;95497.22;;;18.04;79.58
56038;BME280;41907;47.848;9.000;2023-05-10T10:02:09;95498.53;;;18.14;76.61
56038;BME280;41907;47.848;9.000;2023-05-10T10:04:38;95498.03;;;18.31;75.54
56038;BME280;41907;47.848;9.000;2023-05-10T10:07:04;95507.81;;;18.39;74.67
56038;BME280;41907;47.848;9.000;2023-05-10T10:09:29;95499.38;;;18.18;72.86
56038;BME280;41907;47.848;9.000;2023-05-10T10:11:55;95503.72;;;18.00;73.14
56038;BME280;41907;47.848;9.000;2023-05-10T10:14:21;95491.53;;;17.64;72.47
56038;BME280;41907;47.848;9.000;2023-05-10T10:16:48;95507.50;;;17.15;73.80
56038;BME280;41907;47.848;9.000;2023-05-10T10:19:14;95502.59;;;17.39;76.20
56038;BME280;41907;47.848;9.000;2023-05-10T10:21:39;95505.19;;;17.74;75.53
56038;BME280;41907;47.848;9.000;2023-05-10T10:24:05;95504.13;;;18.02;72.80
56038;BME280;41907;47.848;9.000;2023-05-10T10:26:32;95502.81;;;18.41;71.45
56038;BME280;41907;47.848;9.000;2023-05-10T10:29:10;95500.38;;;18.33;73.90
56038;BME280;41907;47.848;9.000;2023-05-10T10:34:17;95513.09;;;17.64;73.22
56038;BME280;41907;47.848;9.000;2023-05-10T10:36:46;95508.56;;;17.91;72.21
56038;BME280;41907;47.848;9.000;2023-05-10T10:39:12;95509.56;;;18.05;74.51
56038;BME280;41907;47.848;9.000;2023-05-10T10:41:48;95509.88;;;18.00;73.19
56038;BME280;41907;47.848;9.000;2023-05-10T10:49:27;95511.84;;;18.26;71.38
56038;BME280;41907;47.848;9.000;2023-05-10T10:54:36;95503.56;;;18.38;70.37
56038;BME280;41907;47.848;9.000;2023-05-10T10:57:12;95501.72;;;17.97;69.03
56038;BME280;41907;47.848;9.000;2023-05-10T10:59:43;95507.47;;;17.72;71.66
56038;BME280;41907;47.848;9.000;2023-05-10T11:02:09;95501.66;;;17.70;70.57
56038;BME280;41907;47.848;9.000;2023-05-10T11:04:41;95500.75;;;17.63;70.64
56038;BME280;41907;47.848;9.000;2023-05-10T11:07:16;95503.91;;;17.68;70.25
56038;BME280;41907;47.848;9.000;2023-05-10T11:09:42;95509.41;;;17.72;71.42
56038;BME280;41907;47.848;9.000;2023-05-10T11:12:08;95518.75;;;17.78;71.40
56038;BME280;41907;47.848;9.000;2023-05-10T11:14:33;95511.50;;;17.82;73.91
56038;BME280;41907;47.848;9.000;2023-05-10T11:16:59;95509.09;;;17.77;73.52
56038;BME280;41907;47.848;9.000;2023-05-10T11:19:27;95501.16;;;17.65;69.87
56038;BME280;41907;47.848;9.000;2023-05-10T11:24:30;95504.00;;;17.33;70.88
56038;BME280;41907;47.848;9.000;2023-05-10T11:26:55;95506.56;;;17.07;70.04
56038;BME280;41907;47.848;9.000;2023-05-10T11:29:21;95498.75;;;17.40;72.09
56038;BME280;41907;47.848;9.000;2023-05-10T11:31:46;95499.50;;;17.60;73.19
56038;BME280;41907;47.848;9.000;2023-05-10T11:34:22;95501.81;;;17.39;69.41
56038;BME280;41907;47.848;9.000;2023-05-10T11:36:50;95498.13;;;17.28;71.06
56038;BME280;41907;47.848;9.000;2023-05-10T11:39:16;95499.41;;;17.15;69.45
56038;BME280;41907;47.848;9.000;2023-05-10T11:41:41;95500.63;;;17.17;67.95
56038;BME280;41907;47.848;9.000;2023-05-10T11:44:06;95506.38;;;17.35;68.40
56038;BME280;41907;47.848;9.000;2023-05-10T11:46:33;95514.03;;;17.33;69.53
56038;BME280;41907;47.848;9.000;2023-05-10T11:49:00;95511.97;;;17.45;68.26
56038;BME280;41907;47.848;9.000;2023-05-10T11:51:26;95515.22;;;17.35;67.21
56038;BME280;41907;47.848;9.000;2023-05-10T11:53:52;95516.84;;;17.21;65.67
56038;BME280;41907;47.848;9.000;2023-05-10T11:56:17;95520.75;;;17.42;65.73
56038;BME280;41907;47.848;9.000;2023-05-10T11:58:43;95520.41;;;17.25;64.84
56038;BME280;41907;47.848;9.000;2023-05-10T12:01:08;95513.44;;;17.24;61.62
56038;BME280;41907;47.848;9.000;2023-05-10T12:03:34;95519.53;;;17.01;63.10
56038;BME280;41907;47.848;9.000;2023-05-10T12:05:59;95528.28;;;17.14;60.52
56038;BME280;41907;47.848;9.000;2023-05-10T12:08:26;95511.81;;;17.38;60.63
56038;BME280;41907;47.848;9.000;2023-05-10T12:10:52;95509.06;;;17.35;60.40
56038;BME280;41907;47.848;9.000;2023-05-10T12:13:18;95510.41;;;17.25;57.87
56038;BME280;41907;47.848;9.000;2023-05-10T12:15:44;95510.19;;;17.34;59.42
56038;BME280;41907;47.848;9.000;2023-05-10T12:18:10;95515.69;;;17.60;61.72
56038;BME280;41907;47.848;9.000;2023-05-10T12:20:35;95510.81;;;17.66;60.76
56038;BME280;41907;47.848;9.000;2023-05-10T12:23:01;95510.06;;;17.88;60.69
56038;BME280;41907;47.848;9.000;2023-05-10T12:25:31;95511.84;;;17.80;56.09
56038;BME280;41907;47.848;9.000;2023-05-10T12:27:58;95512.22;;;17.60;56.03
56038;BME280;41907;47.848;9.000;2023-05-10T12:30:26;95513.78;;;17.61;55.10
56038;BME280;41907;47.848;9.000;2023-05-10T12:32:51;95516.16;;;17.62;55.71
56038;BME280;41907;47.848;9.000;2023-05-10T12:35:17;95510.19;;;17.53;54.96
56038;BME280;41907;47.848;9.000;2023-05-10T12:37:45;95512.72;;;17.46;54.71
56038;BME280;41907;47.848;9.000;2023-05-10T12:40:11;95513.16;;;17.67;55.38
56038;BME280;41907;47.848;9.000;2023-05-10T12:42:36;95516.34;;;17.96;54.54
56038;BME280;41907;47.848;9.000;2023-05-10T12:45:02;95512.94;;;17.99;55.79
56038;BME280;41907;47.848;9.000;2023-05-10T12:47:28;95513.84;;;18.06;57.25
56038;BME280;41907;47.848;9.000;2023-05-10T12:49:53;95517.91;;;18.19;55.47
56038;BME280;41907;47.848;9.000;2023-05-10T12:52:19;95516.56;;;18.33;54.91
56038;BME280;41907;47.848;9.000;2023-05-10T12:54:44;95521.53;;;18.53;54.09
56038;BME280;41907;47.848;9.000;2023-05-10T12:57:09;95519.53;;;18.24;54.33
56038;BME280;41907;47.848;9.000;2023-05-10T12:59:35;95513.16;;;18.58;54.62
56038;BME280;41907;47.848;9.000;2023-05-10T13:02:00;95514.03;;;18.43;53.44
56038;BME280;41907;47.848;9.000;2023-05-10T13:04:25;95514.75;;;18.63;53.42
56038;BME280;41907;47.848;9.000;2023-05-10T13:06:51;95512.16;;;18.70;52.73
56038;BME280;41907;47.848;9.000;2023-05-10T13:09:16;95516.81;;;18.47;53.39